sensor_id;sensor_type;location;lat;lon;timestamp;P1;durP1;ratioP1;P2;durP2;ratioP2
22916;SDS011;11624;53.250;7.456;2024-01-10T00:00:07;37.67;;;17.40;;
22916;SDS011;11624;53.250;7.456;2024-01-10T00:02:36;32.77;;;16.57;;
22916;SDS011;11624;53.250;7.456;2024-01-10T00:05:05;34.17;;;16.73;;
22916;SDS011;11624;53.250;7.456;2024-01-10T00:07:34;36.37;;;16.33;;
22916;SDS011;11624;53.250;7.456;2024-01-10T00:10:03;38.40;;;17.60;;
22916;SDS011;11624;53.250;7.456;2024-01-10T00:12:32;31.40;;;15.77;;
22916;SDS011;11624;53.250;7.456;2024-01-10T00:15:05;37.07;;;16.77;;
22916;SDS011;11624;53.250;7.456;2024-01-10T00:17:34;38.40;;;17.50;;
22916;SDS011;11624;53.250;7.456;2024-01-10T00:20:02;32.97;;;16.07;;
22916;SDS011;11624;53.250;7.456;2024-01-10T00:22:31;38.27;;;17.43;;
22916;SDS011;11624;53.250;7.456;2024-01-10T00:25:00;40.20;;;17.30;;
22916;SDS011;11624;53.250;7.456;2024-01-10T00:27:28;37.03;;;16.83;;
22916;SDS011;11624;53.250;7.456;2024-01-10T00:29:57;35.60;;;16.03;;
22916;SDS011;11624;53.250;7.456;2024-01-10T00:32:27;35.70;;;16.53;;
22916;SDS011;11624;53.250;7.456;2024-01-10T00:34:55;32.87;;;16.40;;
22916;SDS011;11624;53.250;7.456;2024-01-10T00:37:24;33.73;;;15.60;;
22916;SDS011;11624;53.250;7.456;2024-01-10T00:39:52;35.33;;;16.63;;
22916;SDS011;11624;53.250;7.456;2024-01-10T00:42:20;36.30;;;16.83;;
22916;SDS011;11624;53.250;7.456;2024-01-10T00:44:49;36.83;;;17.57;;
22916;SDS011;11624;53.250;7.456;2024-01-10T00:47:17;39.97;;;17.00;;
22916;SDS011;11624;53.250;7.456;2024-01-10T00:49:48;36.33;;;17.87;;
22916;SDS011;11624;53.250;7.456;2024-01-10T00:52:16;36.67;;;17.87;;
22916;SDS011;11624;53.250;7.456;2024-01-10T00:54:45;37.43;;;18.07;;
22916;SDS011;11624;53.250;7.456;2024-01-10T00:57:13;39.90;;;18.90;;
22916;SDS011;11624;53.250;7.456;2024-01-10T00:59:42;38.00;;;18.00;;
22916;SDS011;11624;53.250;7.456;2024-01-10T01:02:10;36.30;;;18.10;;
22916;SDS011;11624;53.250;7.456;2024-01-10T01:04:39;39.57;;;18.60;;
22916;SDS011;11624;53.250;7.456;2024-01-10T01:07:12;42.67;;;20.47;;
22916;SDS011;11624;53.250;7.456;2024-01-10T01:09:41;39.37;;;19.60;;
22916;SDS011;11624;53.250;7.456;2024-01-10T01:12:09;41.70;;;18.77;;
22916;SDS011;11624;53.250;7.456;2024-01-10T01:14:38;41.87;;;19.90;;
22916;SDS011;11624;53.250;7.456;2024-01-10T01:17:06;43.50;;;21.30;;
22916;SDS011;11624;53.250;7.456;2024-01-10T01:19:35;42.13;;;19.87;;
22916;SDS011;11624;53.250;7.456;2024-01-10T01:22:03;39.47;;;19.60;;
22916;SDS011;11624;53.250;7.456;2024-01-10T01:24:33;44.27;;;21.67;;
22916;SDS011;11624;53.250;7.456;2024-01-10T01:27:02;42.63;;;20.93;;
22916;SDS011;11624;53.250;7.456;2024-01-10T01:29:31;42.80;;;20.43;;
22916;SDS011;11624;53.250;7.456;2024-01-10T01:31:59;39.27;;;18.70;;
22916;SDS011;11624;53.250;7.456;2024-01-10T01:34:28;39.50;;;19.73;;
22916;SDS011;11624;53.250;7.456;2024-01-10T01:36:56;43.03;;;21.43;;
22916;SDS011;11624;53.250;7.456;2024-01-10T01:39:25;43.80;;;21.17;;
22916;SDS011;11624;53.250;7.456;2024-01-10T01:41:55;38.73;;;19.20;;
22916;SDS011;11624;53.250;7.456;2024-01-10T01:44:24;41.47;;;20.73;;
22916;SDS011;11624;53.250;7.456;2024-01-10T01:46:52;41.53;;;20.00;;
22916;SDS011;11624;53.250;7.456;2024-01-10T01:49:20;38.17;;;18.77;;
22916;SDS011;11624;53.250;7.456;2024-01-10T01:51:51;46.27;;;20.00;;
22916;SDS011;11624;53.250;7.456;2024-01-10T01:54:20;41.30;;;19.43;;
22916;SDS011;11624;53.250;7.456;2024-01-10T01:56:49;37.87;;;19.53;;
22916;SDS011;11624;53.250;7.456;2024-01-10T01:59:19;39.40;;;19.70;;
22916;SDS011;11624;53.250;7.456;2024-01-10T02:01:48;39.53;;;19.30;;
22916;SDS011;11624;53.250;7.456;2024-01-10T02:04:18;42.93;;;19.33;;
22916;SDS011;11624;53.250;7.456;2024-01-10T02:06:47;42.93;;;19.50;;
22916;SDS011;11624;53.250;7.456;2024-01-10T02:09:16;39.70;;;19.47;;
22916;SDS011;11624;53.250;7.456;2024-01-10T02:11:44;36.83;;;18.43;;
22916;SDS011;11624;53.250;7.456;2024-01-10T02:14:13;36.97;;;18.33;;
22916;SDS011;11624;53.250;7.456;2024-01-10T02:16:43;35.93;;;17.77;;
22916;SDS011;11624;53.250;7.456;2024-01-10T02:19:21;36.43;;;17.80;;
22916;SDS011;11624;53.250;7.456;2024-01-10T02:21:50;38.70;;;18.13;;
22916;SDS011;11624;53.250;7.456;2024-01-10T02:24:19;40.13;;;18.83;;
22916;SDS011;11624;53.250;7.456;2024-01-10T02:26:48;37.70;;;17.60;;
22916;SDS011;11624;53.250;7.456;2024-01-10T02:29:18;37.23;;;18.47;;
22916;SDS011;11624;53.250;7.456;2024-01-10T02:31:46;38.93;;;18.70;;
22916;SDS011;11624;53.250;7.456;2024-01-10T02:34:15;39.90;;;17.67;;
22916;SDS011;11624;53.250;7.456;2024-01-10T02:36:43;33.60;;;16.93;;
22916;SDS011;11624;53.250;7.456;2024-01-10T02:39:12;36.87;;;17.70;;
22916;SDS011;11624;53.250;7.456;2024-01-10T02:41:40;37.17;;;18.37;;
22916;SDS011;11624;53.250;7.456;2024-01-10T02:44:10;37.10;;;16.87;;
22916;SDS011;11624;53.250;7.456;2024-01-10T02:46:41;38.00;;;17.83;;
22916;SDS011;11624;53.250;7.456;2024-01-10T02:49:09;37.47;;;17.60;;
22916;SDS011;11624;53.250;7.456;2024-01-10T02:51:38;41.70;;;18.63;;
22916;SDS011;11624;53.250;7.456;2024-01-10T02:54:06;42.07;;;18.67;;
22916;SDS011;11624;53.250;7.456;2024-01-10T02:56:35;33.60;;;17.53;;
22916;SDS011;11624;53.250;7.456;2024-01-10T02:59:03;34.83;;;18.17;;
22916;SDS011;11624;53.250;7.456;2024-01-10T03:01:33;38.67;;;19.03;;
22916;SDS011;11624;53.250;7.456;2024-01-10T03:04:01;38.63;;;17.83;;
22916;SDS011;11624;53.250;7.456;2024-01-10T03:06:30;40.33;;;19.43;;
22916;SDS011;11624;53.250;7.456;2024-01-10T03:08:58;38.80;;;18.10;;
22916;SDS011;11624;53.250;7.456;2024-01-10T03:11:27;39.90;;;19.63;;
22916;SDS011;11624;53.250;7.456;2024-01-10T03:14:00;42.87;;;18.53;;
22916;SDS011;11624;53.250;7.456;2024-01-10T03:16:30;39.97;;;19.37;;
22916;SDS011;11624;53.250;7.456;2024-01-10T03:19:00;38.80;;;18.90;;
22916;SDS011;11624;53.250;7.456;2024-01-10T03:21:29;40.70;;;19.37;;
22916;SDS011;11624;53.250;7.456;2024-01-10T03:23:58;38.43;;;18.83;;
22916;SDS011;11624;53.250;7.456;2024-01-10T03:26:27;42.60;;;19.93;;
22916;SDS011;11624;53.250;7.456;2024-01-10T03:28:57;37.83;;;18.43;;
22916;SDS011;11624;53.250;7.456;2024-01-10T03:31:26;38.90;;;19.63;;
22916;SDS011;11624;53.250;7.456;2024-01-10T03:33:56;40.73;;;19.83;;
22916;SDS011;11624;53.250;7.456;2024-01-10T03:36:25;40.83;;;20.83;;
22916;SDS011;11624;53.250;7.456;2024-01-10T03:38:53;39.50;;;19.57;;
22916;SDS011;11624;53.250;7.456;2024-01-10T03:41:22;41.80;;;19.77;;
22916;SDS011;11624;53.250;7.456;2024-01-10T03:43:50;38.33;;;19.53;;
22916;SDS011;11624;53.250;7.456;2024-01-10T03:46:19;43.37;;;20.80;;
22916;SDS011;11624;53.250;7.456;2024-01-10T03:48:47;40.70;;;19.63;;
22916;SDS011;11624;53.250;7.456;2024-01-10T03:51:17;41.40;;;20.37;;
22916;SDS011;11624;53.250;7.456;2024-01-10T03:53:46;41.43;;;20.43;;
22916;SDS011;11624;53.250;7.456;2024-01-10T03:56:16;40.27;;;20.20;;
22916;SDS011;11624;53.250;7.456;2024-01-10T03:58:44;43.83;;;20.97;;
22916;SDS011;11624;53.250;7.456;2024-01-10T04:01:15;42.67;;;22.00;;
22916;SDS011;11624;53.250;7.456;2024-01-10T04:03:44;44.57;;;21.07;;
22916;SDS011;11624;53.250;7.456;2024-01-10T04:06:12;41.13;;;19.73;;
22916;SDS011;11624;53.250;7.456;2024-01-10T04:08:42;42.97;;;20.40;;
22916;SDS011;11624;53.250;7.456;2024-01-10T04:11:11;40.00;;;20.17;;
22916;SDS011;11624;53.250;7.456;2024-01-10T04:13:39;41.80;;;20.93;;
22916;SDS011;11624;53.250;7.456;2024-01-10T04:16:07;42.40;;;21.57;;
22916;SDS011;11624;53.250;7.456;2024-01-10T04:18:36;42.13;;;20.10;;
22916;SDS011;11624;53.250;7.456;2024-01-10T04:21:04;43.07;;;21.13;;
22916;SDS011;11624;53.250;7.456;2024-01-10T04:23:33;41.17;;;21.27;;
22916;SDS011;11624;53.250;7.456;2024-01-10T04:26:04;43.13;;;21.70;;
22916;SDS011;11624;53.250;7.456;2024-01-10T04:28:32;43.80;;;22.10;;
22916;SDS011;11624;53.250;7.456;2024-01-10T04:31:01;44.70;;;22.20;;
22916;SDS011;11624;53.250;7.456;2024-01-10T04:33:29;43.10;;;22.23;;
22916;SDS011;11624;53.250;7.456;2024-01-10T04:35:58;45.37;;;22.10;;
22916;SDS011;11624;53.250;7.456;2024-01-10T04:38:26;47.27;;;23.47;;
22916;SDS011;11624;53.250;7.456;2024-01-10T04:40:54;44.87;;;22.33;;
22916;SDS011;11624;53.250;7.456;2024-01-10T04:43:24;45.87;;;22.90;;
22916;SDS011;11624;53.250;7.456;2024-01-10T04:45:53;45.67;;;22.47;;
22916;SDS011;11624;53.250;7.456;2024-01-10T04:48:21;47.20;;;23.07;;
22916;SDS011;11624;53.250;7.456;2024-01-10T04:50:50;45.43;;;22.27;;
22916;SDS011;11624;53.250;7.456;2024-01-10T04:53:18;44.67;;;23.70;;
22916;SDS011;11624;53.250;7.456;2024-01-10T04:55:47;48.40;;;22.93;;
22916;SDS011;11624;53.250;7.456;2024-01-10T04:58:17;51.13;;;23.97;;
22916;SDS011;11624;53.250;7.456;2024-01-10T05:00:47;49.60;;;23.57;;
22916;SDS011;11624;53.250;7.456;2024-01-10T05:03:16;48.20;;;23.97;;
22916;SDS011;11624;53.250;7.456;2024-01-10T05:05:44;46.90;;;23.27;;
22916;SDS011;11624;53.250;7.456;2024-01-10T05:08:13;45.07;;;22.33;;
22916;SDS011;11624;53.250;7.456;2024-01-10T05:10:41;50.93;;;24.67;;
22916;SDS011;11624;53.250;7.456;2024-01-10T05:13:10;45.13;;;22.67;;
22916;SDS011;11624;53.250;7.456;2024-01-10T05:15:38;51.90;;;24.73;;
22916;SDS011;11624;53.250;7.456;2024-01-10T05:18:08;50.73;;;24.13;;
22916;SDS011;11624;53.250;7.456;2024-01-10T05:20:37;55.27;;;23.67;;
22916;SDS011;11624;53.250;7.456;2024-01-10T05:23:06;50.63;;;23.30;;
22916;SDS011;11624;53.250;7.456;2024-01-10T05:25:34;49.53;;;23.87;;
22916;SDS011;11624;53.250;7.456;2024-01-10T05:28:03;53.60;;;23.57;;
22916;SDS011;11624;53.250;7.456;2024-01-10T05:30:32;50.83;;;23.63;;
22916;SDS011;11624;53.250;7.456;2024-01-10T05:33:01;55.63;;;24.53;;
22916;SDS011;11624;53.250;7.456;2024-01-10T05:35:31;52.17;;;22.77;;
22916;SDS011;11624;53.250;7.456;2024-01-10T05:38:00;55.63;;;25.10;;
22916;SDS011;11624;53.250;7.456;2024-01-10T05:40:30;52.17;;;22.77;;
22916;SDS011;11624;53.250;7.456;2024-01-10T05:42:59;54.07;;;23.50;;
22916;SDS011;11624;53.250;7.456;2024-01-10T05:45:27;54.47;;;23.00;;
22916;SDS011;11624;53.250;7.456;2024-01-10T05:47:56;53.60;;;22.20;;
22916;SDS011;11624;53.250;7.456;2024-01-10T05:50:24;49.80;;;21.23;;
22916;SDS011;11624;53.250;7.456;2024-01-10T05:52:54;52.33;;;22.43;;
22916;SDS011;11624;53.250;7.456;2024-01-10T05:55:23;55.03;;;21.73;;
22916;SDS011;11624;53.250;7.456;2024-01-10T05:57:51;52.90;;;21.93;;
22916;SDS011;11624;53.250;7.456;2024-01-10T06:00:20;49.23;;;21.07;;
22916;SDS011;11624;53.250;7.456;2024-01-10T06:02:48;46.93;;;21.70;;
22916;SDS011;11624;53.250;7.456;2024-01-10T06:05:17;50.10;;;20.13;;
22916;SDS011;11624;53.250;7.456;2024-01-10T06:07:45;49.67;;;19.70;;
22916;SDS011;11624;53.250;7.456;2024-01-10T06:10:15;48.90;;;20.37;;
22916;SDS011;11624;53.250;7.456;2024-01-10T06:12:44;46.47;;;19.40;;
22916;SDS011;11624;53.250;7.456;2024-01-10T06:15:12;52.87;;;20.63;;
22916;SDS011;11624;53.250;7.456;2024-01-10T06:17:41;54.53;;;20.63;;
22916;SDS011;11624;53.250;7.456;2024-01-10T06:20:10;51.70;;;20.13;;
22916;SDS011;11624;53.250;7.456;2024-01-10T06:22:38;46.40;;;17.73;;
22916;SDS011;11624;53.250;7.456;2024-01-10T06:25:08;46.60;;;19.10;;
22916;SDS011;11624;53.250;7.456;2024-01-10T06:27:38;47.67;;;19.20;;
22916;SDS011;11624;53.250;7.456;2024-01-10T06:30:07;55.07;;;19.87;;
22916;SDS011;11624;53.250;7.456;2024-01-10T06:32:36;49.30;;;19.03;;
22916;SDS011;11624;53.250;7.456;2024-01-10T06:35:05;45.87;;;19.43;;
22916;SDS011;11624;53.250;7.456;2024-01-10T06:37:37;51.27;;;19.00;;
22916;SDS011;11624;53.250;7.456;2024-01-10T06:40:06;45.80;;;17.57;;
22916;SDS011;11624;53.250;7.456;2024-01-10T06:42:35;47.50;;;18.07;;
22916;SDS011;11624;53.250;7.456;2024-01-10T06:45:06;43.00;;;18.50;;
22916;SDS011;11624;53.250;7.456;2024-01-10T06:47:35;45.57;;;17.17;;
22916;SDS011;11624;53.250;7.456;2024-01-10T06:50:04;50.53;;;17.80;;
22916;SDS011;11624;53.250;7.456;2024-01-10T06:52:35;47.07;;;18.23;;
22916;SDS011;11624;53.250;7.456;2024-01-10T06:55:04;46.40;;;16.37;;
22916;SDS011;11624;53.250;7.456;2024-01-10T06:57:34;50.20;;;18.97;;
22916;SDS011;11624;53.250;7.456;2024-01-10T07:00:05;45.10;;;16.43;;
22916;SDS011;11624;53.250;7.456;2024-01-10T07:02:38;41.67;;;15.90;;
22916;SDS011;11624;53.250;7.456;2024-01-10T07:05:07;48.83;;;16.97;;
22916;SDS011;11624;53.250;7.456;2024-01-10T07:07:36;42.40;;;16.03;;
22916;SDS011;11624;53.250;7.456;2024-01-10T07:10:05;39.83;;;14.87;;
22916;SDS011;11624;53.250;7.456;2024-01-10T07:12:34;42.00;;;14.50;;
22916;SDS011;11624;53.250;7.456;2024-01-10T07:15:05;48.00;;;16.40;;
22916;SDS011;11624;53.250;7.456;2024-01-10T07:17:34;41.00;;;15.47;;
22916;SDS011;11624;53.250;7.456;2024-01-10T07:20:03;44.13;;;15.53;;
22916;SDS011;11624;53.250;7.456;2024-01-10T07:22:34;38.77;;;16.00;;
22916;SDS011;11624;53.250;7.456;2024-01-10T07:25:02;44.23;;;15.57;;
22916;SDS011;11624;53.250;7.456;2024-01-10T07:27:34;43.10;;;15.87;;
22916;SDS011;11624;53.250;7.456;2024-01-10T07:30:06;39.30;;;15.77;;
22916;SDS011;11624;53.250;7.456;2024-01-10T07:32:40;43.13;;;16.07;;
22916;SDS011;11624;53.250;7.456;2024-01-10T07:35:09;42.23;;;15.57;;
22916;SDS011;11624;53.250;7.456;2024-01-10T07:37:39;45.50;;;16.23;;
22916;SDS011;11624;53.250;7.456;2024-01-10T07:40:09;46.13;;;15.13;;
22916;SDS011;11624;53.250;7.456;2024-01-10T07:42:40;45.47;;;15.33;;
22916;SDS011;11624;53.250;7.456;2024-01-10T07:45:11;40.67;;;14.67;;
22916;SDS011;11624;53.250;7.456;2024-01-10T07:47:40;42.53;;;15.60;;
22916;SDS011;11624;53.250;7.456;2024-01-10T07:50:09;43.50;;;15.43;;
22916;SDS011;11624;53.250;7.456;2024-01-10T07:52:42;42.10;;;14.60;;
22916;SDS011;11624;53.250;7.456;2024-01-10T07:55:12;42.60;;;15.77;;
22916;SDS011;11624;53.250;7.456;2024-01-10T07:57:41;43.33;;;15.60;;
22916;SDS011;11624;53.250;7.456;2024-01-10T08:00:11;44.27;;;15.33;;
22916;SDS011;11624;53.250;7.456;2024-01-10T08:02:40;41.73;;;14.87;;
22916;SDS011;11624;53.250;7.456;2024-01-10T08:05:09;38.40;;;15.53;;
22916;SDS011;11624;53.250;7.456;2024-01-10T08:07:39;43.43;;;15.50;;
22916;SDS011;11624;53.250;7.456;2024-01-10T08:10:08;37.93;;;14.27;;
22916;SDS011;11624;53.250;7.456;2024-01-10T08:12:37;40.77;;;15.13;;
22916;SDS011;11624;53.250;7.456;2024-01-10T08:15:07;48.23;;;14.93;;
22916;SDS011;11624;53.250;7.456;2024-01-10T08:17:38;44.47;;;15.13;;
22916;SDS011;11624;53.250;7.456;2024-01-10T08:20:07;40.43;;;15.13;;
22916;SDS011;11624;53.250;7.456;2024-01-10T08:22:38;42.70;;;17.10;;
22916;SDS011;11624;53.250;7.456;2024-01-10T08:25:07;45.27;;;16.23;;
22916;SDS011;11624;53.250;7.456;2024-01-10T08:27:36;44.97;;;15.73;;
22916;SDS011;11624;53.250;7.456;2024-01-10T08:30:06;42.53;;;16.20;;
22916;SDS011;11624;53.250;7.456;2024-01-10T08:32:36;44.53;;;16.40;;
22916;SDS011;11624;53.250;7.456;2024-01-10T08:35:07;46.57;;;14.93;;
22916;SDS011;11624;53.250;7.456;2024-01-10T08:37:36;37.60;;;15.07;;
22916;SDS011;11624;53.250;7.456;2024-01-10T08:40:08;41.63;;;15.53;;
22916;SDS011;11624;53.250;7.456;2024-01-10T08:42:38;43.87;;;17.50;;
22916;SDS011;11624;53.250;7.456;2024-01-10T08:45:07;41.30;;;15.70;;
22916;SDS011;11624;53.250;7.456;2024-01-10T08:47:38;42.43;;;15.30;;
22916;SDS011;11624;53.250;7.456;2024-01-10T08:50:10;39.00;;;14.83;;
22916;SDS011;11624;53.250;7.456;2024-01-10T08:52:39;39.53;;;14.83;;
22916;SDS011;11624;53.250;7.456;2024-01-10T08:55:07;41.20;;;15.93;;
22916;SDS011;11624;53.250;7.456;2024-01-10T08:57:39;40.13;;;15.87;;
22916;SDS011;11624;53.250;7.456;2024-01-10T09:00:08;41.03;;;14.50;;
22916;SDS011;11624;53.250;7.456;2024-01-10T09:02:39;39.67;;;14.70;;
22916;SDS011;11624;53.250;7.456;2024-01-10T09:05:09;39.33;;;14.93;;
22916;SDS011;11624;53.250;7.456;2024-01-10T09:07:38;42.40;;;15.57;;
22916;SDS011;11624;53.250;7.456;2024-01-10T09:10:08;42.23;;;15.10;;
22916;SDS011;11624;53.250;7.456;2024-01-10T09:12:36;43.33;;;15.93;;
22916;SDS011;11624;53.250;7.456;2024-01-10T09:15:05;37.90;;;14.43;;
22916;SDS011;11624;53.250;7.456;2024-01-10T09:17:39;35.43;;;14.07;;
22916;SDS011;11624;53.250;7.456;2024-01-10T09:20:10;44.23;;;15.00;;
22916;SDS011;11624;53.250;7.456;2024-01-10T09:22:40;37.67;;;13.90;;
22916;SDS011;11624;53.250;7.456;2024-01-10T09:25:09;37.63;;;14.10;;
22916;SDS011;11624;53.250;7.456;2024-01-10T09:27:39;38.33;;;14.27;;
22916;SDS011;11624;53.250;7.456;2024-01-10T09:30:10;34.37;;;13.37;;
22916;SDS011;11624;53.250;7.456;2024-01-10T09:32:40;36.37;;;14.67;;
22916;SDS011;11624;53.250;7.456;2024-01-10T09:35:10;38.03;;;15.00;;
22916;SDS011;11624;53.250;7.456;2024-01-10T09:37:39;37.53;;;13.93;;
22916;SDS011;11624;53.250;7.456;2024-01-10T09:40:08;36.83;;;14.13;;
22916;SDS011;11624;53.250;7.456;2024-01-10T09:42:39;36.43;;;14.20;;
22916;SDS011;11624;53.250;7.456;2024-01-10T09:45:08;37.50;;;14.30;;
22916;SDS011;11624;53.250;7.456;2024-01-10T09:47:39;40.70;;;14.60;;
22916;SDS011;11624;53.250;7.456;2024-01-10T09:50:11;33.43;;;12.40;;
22916;SDS011;11624;53.250;7.456;2024-01-10T09:52:41;33.57;;;12.27;;
22916;SDS011;11624;53.250;7.456;2024-01-10T09:55:18;36.13;;;13.30;;
22916;SDS011;11624;53.250;7.456;2024-01-10T09:57:51;33.63;;;12.47;;
22916;SDS011;11624;53.250;7.456;2024-01-10T10:00:20;31.23;;;12.53;;
22916;SDS011;11624;53.250;7.456;2024-01-10T10:02:52;32.83;;;12.87;;
22916;SDS011;11624;53.250;7.456;2024-01-10T10:05:24;32.17;;;13.23;;
22916;SDS011;11624;53.250;7.456;2024-01-10T10:07:53;35.97;;;13.50;;
22916;SDS011;11624;53.250;7.456;2024-01-10T10:10:22;32.20;;;12.53;;
22916;SDS011;11624;53.250;7.456;2024-01-10T10:12:52;30.30;;;12.83;;
22916;SDS011;11624;53.250;7.456;2024-01-10T10:15:21;27.50;;;10.97;;
22916;SDS011;11624;53.250;7.456;2024-01-10T10:17:53;26.67;;;11.23;;
22916;SDS011;11624;53.250;7.456;2024-01-10T10:20:23;26.40;;;11.27;;
22916;SDS011;11624;53.250;7.456;2024-01-10T10:23:00;29.20;;;11.73;;
22916;SDS011;11624;53.250;7.456;2024-01-10T10:25:30;28.30;;;11.27;;
22916;SDS011;11624;53.250;7.456;2024-01-10T10:28:00;26.93;;;10.73;;
22916;SDS011;11624;53.250;7.456;2024-01-10T10:32:58;26.47;;;10.60;;
22916;SDS011;11624;53.250;7.456;2024-01-10T10:35:29;25.87;;;10.53;;
22916;SDS011;11624;53.250;7.456;2024-01-10T10:38:07;26.47;;;10.93;;
22916;SDS011;11624;53.250;7.456;2024-01-10T10:40:37;24.52;;;9.68;;
22916;SDS011;11624;53.250;7.456;2024-01-10T10:43:06;24.50;;;10.43;;
22916;SDS011;11624;53.250;7.456;2024-01-10T10:45:43;24.52;;;9.75;;
22916;SDS011;11624;53.250;7.456;2024-01-10T10:48:17;23.25;;;9.77;;
22916;SDS011;11624;53.250;7.456;2024-01-10T10:50:53;20.80;;;9.23;;
22916;SDS011;11624;53.250;7.456;2024-01-10T10:53:27;26.23;;;10.20;;
22916;SDS011;11624;53.250;7.456;2024-01-10T10:55:57;22.67;;;9.48;;
22916;SDS011;11624;53.250;7.456;2024-01-10T10:58:28;24.52;;;10.18;;
22916;SDS011;11624;53.250;7.456;2024-01-10T11:00:58;24.38;;;10.25;;
22916;SDS011;11624;53.250;7.456;2024-01-10T11:03:28;24.30;;;9.63;;
22916;SDS011;11624;53.250;7.456;2024-01-10T11:06:00;22.40;;;9.38;;
22916;SDS011;11624;53.250;7.456;2024-01-10T11:08:30;26.80;;;9.90;;
22916;SDS011;11624;53.250;7.456;2024-01-10T11:11:04;24.55;;;10.35;;
22916;SDS011;11624;53.250;7.456;2024-01-10T11:13:44;22.35;;;8.75;;
22916;SDS011;11624;53.250;7.456;2024-01-10T11:16:41;23.73;;;9.35;;
22916;SDS011;11624;53.250;7.456;2024-01-10T11:19:36;25.63;;;10.07;;
22916;SDS011;11624;53.250;7.456;2024-01-10T11:25:17;25.73;;;9.27;;
22916;SDS011;11624;53.250;7.456;2024-01-10T11:27:46;22.17;;;9.10;;
22916;SDS011;11624;53.250;7.456;2024-01-10T11:30:30;21.63;;;9.20;;
22916;SDS011;11624;53.250;7.456;2024-01-10T11:33:07;25.63;;;9.17;;
22916;SDS011;11624;53.250;7.456;2024-01-10T11:38:39;23.87;;;9.80;;
22916;SDS011;11624;53.250;7.456;2024-01-10T11:41:13;22.20;;;9.10;;
22916;SDS011;11624;53.250;7.456;2024-01-10T11:46:48;21.23;;;8.40;;
22916;SDS011;11624;53.250;7.456;2024-01-10T11:49:17;20.00;;;7.80;;
22916;SDS011;11624;53.250;7.456;2024-01-10T11:51:47;21.20;;;8.57;;
22916;SDS011;11624;53.250;7.456;2024-01-10T11:57:07;20.77;;;8.15;;
22916;SDS011;11624;53.250;7.456;2024-01-10T11:59:37;21.35;;;8.35;;
22916;SDS011;11624;53.250;7.456;2024-01-10T12:02:06;25.60;;;9.75;;
22916;SDS011;11624;53.250;7.456;2024-01-10T12:04:35;20.08;;;8.85;;
22916;SDS011;11624;53.250;7.456;2024-01-10T12:07:13;23.98;;;9.02;;
22916;SDS011;11624;53.250;7.456;2024-01-10T12:09:44;21.92;;;8.95;;
22916;SDS011;11624;53.250;7.456;2024-01-10T12:12:13;20.77;;;8.45;;
22916;SDS011;11624;53.250;7.456;2024-01-10T12:14:43;19.98;;;8.57;;
22916;SDS011;11624;53.250;7.456;2024-01-10T12:17:12;21.27;;;8.80;;
22916;SDS011;11624;53.250;7.456;2024-01-10T12:19:41;20.05;;;8.65;;
22916;SDS011;11624;53.250;7.456;2024-01-10T12:22:13;19.90;;;8.88;;
22916;SDS011;11624;53.250;7.456;2024-01-10T12:24:48;20.02;;;8.55;;
22916;SDS011;11624;53.250;7.456;2024-01-10T12:27:18;21.45;;;8.85;;
22916;SDS011;11624;53.250;7.456;2024-01-10T12:29:49;19.55;;;8.43;;
22916;SDS011;11624;53.250;7.456;2024-01-10T12:32:20;21.20;;;8.45;;
22916;SDS011;11624;53.250;7.456;2024-01-10T12:35:00;21.92;;;8.30;;
22916;SDS011;11624;53.250;7.456;2024-01-10T12:37:30;18.88;;;8.20;;
22916;SDS011;11624;53.250;7.456;2024-01-10T12:40:00;19.02;;;7.57;;
22916;SDS011;11624;53.250;7.456;2024-01-10T12:42:36;20.15;;;8.05;;
22916;SDS011;11624;53.250;7.456;2024-01-10T12:45:05;22.00;;;8.57;;
22916;SDS011;11624;53.250;7.456;2024-01-10T12:47:47;21.33;;;8.38;;
22916;SDS011;11624;53.250;7.456;2024-01-10T12:50:16;22.30;;;8.77;;
22916;SDS011;11624;53.250;7.456;2024-01-10T12:52:45;21.73;;;8.57;;
22916;SDS011;11624;53.250;7.456;2024-01-10T12:55:16;19.65;;;8.05;;
22916;SDS011;11624;53.250;7.456;2024-01-10T12:57:45;21.15;;;8.55;;
22916;SDS011;11624;53.250;7.456;2024-01-10T13:00:14;19.67;;;8.52;;
22916;SDS011;11624;53.250;7.456;2024-01-10T13:02:42;20.25;;;9.15;;
22916;SDS011;11624;53.250;7.456;2024-01-10T13:05:11;21.55;;;8.65;;
22916;SDS011;11624;53.250;7.456;2024-01-10T13:07:39;19.27;;;7.70;;
22916;SDS011;11624;53.250;7.456;2024-01-10T13:10:08;20.77;;;8.30;;
22916;SDS011;11624;53.250;7.456;2024-01-10T13:12:38;20.77;;;8.43;;
22916;SDS011;11624;53.250;7.456;2024-01-10T13:15:07;19.02;;;7.78;;
22916;SDS011;11624;53.250;7.456;2024-01-10T13:17:36;18.15;;;8.05;;
22916;SDS011;11624;53.250;7.456;2024-01-10T13:20:05;19.52;;;8.70;;
22916;SDS011;11624;53.250;7.456;2024-01-10T13:22:36;20.25;;;8.23;;
22916;SDS011;11624;53.250;7.456;2024-01-10T13:25:05;19.15;;;8.55;;
22916;SDS011;11624;53.250;7.456;2024-01-10T13:27:35;19.08;;;7.75;;
22916;SDS011;11624;53.250;7.456;2024-01-10T13:30:07;18.42;;;8.23;;
22916;SDS011;11624;53.250;7.456;2024-01-10T13:32:38;21.73;;;8.27;;
22916;SDS011;11624;53.250;7.456;2024-01-10T13:35:07;20.45;;;8.68;;
22916;SDS011;11624;53.250;7.456;2024-01-10T13:37:36;17.88;;;7.65;;
22916;SDS011;11624;53.250;7.456;2024-01-10T13:40:04;19.95;;;7.13;;
22916;SDS011;11624;53.250;7.456;2024-01-10T13:42:36;18.90;;;7.30;;
22916;SDS011;11624;53.250;7.456;2024-01-10T13:45:06;18.05;;;7.55;;
22916;SDS011;11624;53.250;7.456;2024-01-10T13:47:37;18.00;;;7.53;;
22916;SDS011;11624;53.250;7.456;2024-01-10T13:50:07;18.63;;;7.88;;
22916;SDS011;11624;53.250;7.456;2024-01-10T13:52:36;19.02;;;7.95;;
22916;SDS011;11624;53.250;7.456;2024-01-10T13:55:05;18.80;;;7.32;;
22916;SDS011;11624;53.250;7.456;2024-01-10T13:57:33;21.27;;;7.88;;
22916;SDS011;11624;53.250;7.456;2024-01-10T14:00:02;18.65;;;7.90;;
22916;SDS011;11624;53.250;7.456;2024-01-10T14:02:40;19.45;;;8.43;;
22916;SDS011;11624;53.250;7.456;2024-01-10T14:05:09;23.15;;;6.93;;
22916;SDS011;11624;53.250;7.456;2024-01-10T14:07:38;19.48;;;7.65;;
22916;SDS011;11624;53.250;7.456;2024-01-10T14:10:07;19.40;;;7.63;;
22916;SDS011;11624;53.250;7.456;2024-01-10T14:12:37;19.25;;;7.55;;
22916;SDS011;11624;53.250;7.456;2024-01-10T14:15:09;17.08;;;7.05;;
22916;SDS011;11624;53.250;7.456;2024-01-10T14:17:37;22.08;;;8.38;;
22916;SDS011;11624;53.250;7.456;2024-01-10T14:20:08;19.48;;;8.57;;
22916;SDS011;11624;53.250;7.456;2024-01-10T14:22:37;20.85;;;8.77;;
22916;SDS011;11624;53.250;7.456;2024-01-10T14:25:07;18.15;;;8.18;;
22916;SDS011;11624;53.250;7.456;2024-01-10T14:27:37;19.40;;;8.10;;
22916;SDS011;11624;53.250;7.456;2024-01-10T14:30:06;21.27;;;8.32;;
22916;SDS011;11624;53.250;7.456;2024-01-10T14:32:38;20.00;;;8.65;;
22916;SDS011;11624;53.250;7.456;2024-01-10T14:35:08;19.77;;;8.45;;
22916;SDS011;11624;53.250;7.456;2024-01-10T14:37:37;19.13;;;8.17;;
22916;SDS011;11624;53.250;7.456;2024-01-10T14:40:06;20.47;;;8.93;;
22916;SDS011;11624;53.250;7.456;2024-01-10T14:42:36;22.00;;;9.33;;
22916;SDS011;11624;53.250;7.456;2024-01-10T14:45:05;19.87;;;8.27;;
22916;SDS011;11624;53.250;7.456;2024-01-10T14:47:35;21.40;;;9.13;;
22916;SDS011;11624;53.250;7.456;2024-01-10T14:50:03;22.37;;;9.20;;
22916;SDS011;11624;53.250;7.456;2024-01-10T14:52:34;25.03;;;10.60;;
22916;SDS011;11624;53.250;7.456;2024-01-10T14:55:03;23.67;;;9.10;;